Gooderham, Canada
Current Conditions -  °F | °C
As of 3:28 PM on Thursday 29 Jan 2015 (Local Time) from CYQA Reporting Station
Light Snow Light Snow  
Wind Chill: 15°   Ceiling: 5500
Heat Index: 23°   Visibility: 6mi
Dew Point: 21°   Wind: 7mph
Humidity: 93%   Direction: 130°SE
Pressure: 29.69"   Gusts: NA
Location:  44.9°N, 78.38°W
Report Text: CYQA 292028Z AUTO 13006KT 6SM -SN SCT014 OVC055 M05/M06 A2969 RMK SLP071
Loading
Personal Weather Stations






























Interactive Weather Map New forecast layout! Learn more

10-Day Weather Forecast

Advertisements
Track Severe Weather on mobile